Time;durP1;ratioP1;P1;durP2;ratioP2;P2;SDS_P1;SDS_P2;PMS_P1;PMS_P2;Temp;Humidity;BMP_temperature;BMP_pressure;BME280_temperature;BME280_humidity;BME280_pressure;Samples;Min_cycle;Max_cycle;Signal;HPM_P1;HPM_P2
2022/07/21 00:01:35;;;;;;;7.43;4.18;;;20.90;99.90;;;;;;5045401;28;20043;-60
2022/07/21 00:04:01;;;;;;;12.98;6.00;;;20.90;99.90;;;;;;5045995;28;20091;-60
2022/07/21 00:06:27;;;;;;;7.50;5.38;;;20.80;99.90;;;;;;5046350;28;20049;-60
2022/07/21 00:08:52;;;;;;;7.18;4.57;;;20.80;99.90;;;;;;5045481;28;20040;-60
2022/07/21 00:11:18;;;;;;;8.93;5.22;;;20.80;99.90;;;;;;5046085;28;20037;-60
2022/07/21 00:13:44;;;;;;;10.05;5.63;;;20.80;99.90;;;;;;5049172;28;20155;-60
2022/07/21 00:16:10;;;;;;;5.90;4.43;;;20.80;99.90;;;;;;5049220;28;20041;-60
2022/07/21 00:18:36;;;;;;;5.90;4.30;;;20.70;99.90;;;;;;5050085;28;20076;-60
2022/07/21 00:21:02;;;;;;;7.75;5.65;;;20.70;99.90;;;;;;5049201;28;20431;-60
2022/07/21 00:23:28;;;;;;;8.98;6.18;;;20.70;99.90;;;;;;5049727;28;20186;-60
2022/07/21 00:25:54;;;;;;;8.68;5.68;;;20.60;99.90;;;;;;5050215;28;20047;-60
2022/07/21 00:28:20;;;;;;;5.55;4.43;;;20.60;99.90;;;;;;5048234;28;20104;-60
2022/07/21 00:30:46;;;;;;;9.82;5.75;;;20.60;99.90;;;;;;5049419;28;20563;-60
2022/07/21 00:33:12;;;;;;;7.72;5.50;;;20.50;99.90;;;;;;5049894;28;20091;-60
2022/07/21 00:35:38;;;;;;;9.63;6.15;;;20.50;99.90;;;;;;5049093;28;20080;-60
2022/07/21 00:38:04;;;;;;;16.10;6.25;;;20.60;99.90;;;;;;5049222;28;20049;-60
2022/07/21 00:40:30;;;;;;;7.68;5.35;;;20.60;99.90;;;;;;5049578;28;20099;-60
2022/07/21 00:42:56;;;;;;;7.03;6.13;;;20.70;99.90;;;;;;5048481;28;20120;-60
2022/07/21 00:45:22;;;;;;;11.05;6.57;;;20.70;99.90;;;;;;5065305;28;20055;-60
2022/07/21 00:47:47;;;;;;;8.30;6.15;;;20.60;99.90;;;;;;5049232;28;20177;-60
2022/07/21 00:50:17;;;;;;;8.13;6.13;;;20.50;99.90;;;;;;5048778;28;20041;-60
2022/07/21 00:52:43;;;;;;;11.93;7.15;;;20.40;99.90;;;;;;5049369;28;20056;-60
2022/07/21 00:55:12;;;;;;;10.93;7.30;;;20.50;99.90;;;;;;5048015;28;20074;-60
2022/07/21 00:57:39;;;;;;;10.75;6.78;;;20.70;99.90;;;;;;5048768;28;20308;-60
2022/07/21 01:00:07;;;;;;;7.63;6.45;;;20.50;99.90;;;;;;5049152;28;20049;-60
2022/07/21 01:02:36;;;;;;;10.30;6.82;;;20.50;99.90;;;;;;5049309;28;20049;-60
2022/07/21 01:05:03;;;;;;;12.23;8.02;;;20.40;99.90;;;;;;5047944;28;20120;-60
2022/07/21 01:07:29;;;;;;;9.52;7.22;;;20.40;99.90;;;;;;5049411;28;20044;-60
2022/07/21 01:09:56;;;;;;;14.05;7.78;;;20.40;99.90;;;;;;5048940;28;20385;-60
2022/07/21 01:12:21;;;;;;;10.07;7.00;;;20.40;99.90;;;;;;5049202;28;20052;-60
2022/07/21 01:14:47;;;;;;;16.25;8.75;;;20.40;99.90;;;;;;5048804;28;20393;-60
2022/07/21 01:17:13;;;;;;;10.48;8.07;;;20.30;99.90;;;;;;5049350;28;20045;-60
2022/07/21 01:19:39;;;;;;;12.30;8.07;;;20.30;99.90;;;;;;5048113;28;20138;-60
2022/07/21 01:22:05;;;;;;;11.60;8.07;;;20.20;99.90;;;;;;5048397;28;20094;-60
2022/07/21 01:24:30;;;;;;;13.38;9.95;;;20.10;99.90;;;;;;5047998;28;20049;-60
2022/07/21 01:26:56;;;;;;;12.73;10.00;;;20.20;99.90;;;;;;5048627;28;20103;-60
2022/07/21 01:29:22;;;;;;;15.75;10.02;;;20.10;99.90;;;;;;5049644;28;20425;-60
2022/07/21 01:31:49;;;;;;;11.70;9.52;;;20.10;99.90;;;;;;5047723;28;20047;-60
2022/07/21 01:34:15;;;;;;;10.38;8.48;;;20.10;99.90;;;;;;5048274;28;20399;-60
2022/07/21 01:36:41;;;;;;;11.25;8.77;;;20.10;99.90;;;;;;5048734;28;20044;-60
2022/07/21 01:41:51;;;;;;;11.75;9.35;;;20.00;99.90;;;;;;5048647;28;20057;-60
2022/07/21 01:44:17;;;;;;;15.07;9.38;;;20.00;99.90;;;;;;5048335;28;20055;-60
2022/07/21 01:46:45;;;;;;;13.18;9.15;;;19.90;99.90;;;;;;5047540;28;20041;-60
2022/07/21 01:49:13;;;;;;;16.45;9.82;;;19.90;99.90;;;;;;5048633;28;20072;-60
2022/07/21 01:51:39;;;;;;;13.98;9.75;;;20.00;99.90;;;;;;5048467;28;20128;-60
2022/07/21 01:54:06;;;;;;;11.50;9.90;;;19.90;99.90;;;;;;5047364;28;20120;-60
2022/07/21 01:56:34;;;;;;;13.98;10.25;;;19.80;99.90;;;;;;5048010;28;20107;-60
2022/07/21 01:59:00;;;;;;;13.07;9.95;;;19.90;99.90;;;;;;5047809;28;20049;-60
2022/07/21 02:01:28;;;;;;;14.10;9.52;;;19.90;99.90;;;;;;5047266;28;20106;-60
2022/07/21 02:03:58;;;;;;;11.13;9.13;;;19.90;99.90;;;;;;5048462;28;20219;-60
2022/07/21 02:06:24;;;;;;;12.82;8.75;;;19.90;99.90;;;;;;5048629;28;20072;-60
2022/07/21 02:08:49;;;;;;;11.05;8.65;;;19.90;99.90;;;;;;5029496;28;20499;-60
2022/07/21 02:11:16;;;;;;;13.95;9.55;;;19.90;99.90;;;;;;5047563;28;20043;-60
2022/07/21 02:13:42;;;;;;;15.85;9.40;;;19.80;99.90;;;;;;5047111;28;20115;-60
2022/07/21 02:16:08;;;;;;;15.02;9.45;;;19.80;99.90;;;;;;5047464;28;20043;-60
2022/07/21 02:18:35;;;;;;;13.60;9.70;;;19.80;99.90;;;;;;5047632;28;20045;-60
2022/07/21 02:21:00;;;;;;;14.55;8.95;;;19.80;99.90;;;;;;5046606;28;20048;-60
2022/07/21 02:23:27;;;;;;;11.15;8.82;;;19.80;99.90;;;;;;5047631;28;20049;-60
2022/07/21 02:25:53;;;;;;;13.43;9.20;;;19.90;99.90;;;;;;5047768;28;20401;-60
2022/07/21 02:28:20;;;;;;;26.90;9.45;;;19.80;99.90;;;;;;5045587;28;20049;-60
2022/07/21 02:30:46;;;;;;;17.38;8.82;;;19.80;99.90;;;;;;5047090;28;20068;-60
2022/07/21 02:33:12;;;;;;;16.48;9.80;;;19.90;99.90;;;;;;5047905;28;20048;-60
2022/07/21 02:35:39;;;;;;;11.93;7.93;;;19.90;99.90;;;;;;5045992;28;20407;-60
2022/07/21 02:38:04;;;;;;;12.20;9.68;;;20.00;99.90;;;;;;5047580;28;20062;-60
2022/07/21 02:40:31;;;;;;;13.85;9.32;;;19.80;99.90;;;;;;5047480;28;20124;-60
2022/07/21 02:42:56;;;;;;;13.52;9.25;;;19.80;99.90;;;;;;5046064;28;20074;-60
2022/07/21 02:45:22;;;;;;;13.48;9.77;;;19.80;99.90;;;;;;5047934;28;20045;-60
2022/07/21 02:47:53;;;;;;;13.68;10.02;;;19.70;99.90;;;;;;5047127;28;20369;-60
2022/07/21 02:50:19;;;;;;;16.58;11.35;;;19.60;99.90;;;;;;5046567;28;20049;-60
2022/07/21 02:52:45;;;;;;;13.60;10.45;;;19.60;99.90;;;;;;5047442;28;20040;-60
2022/07/21 02:55:11;;;;;;;16.88;10.93;;;19.60;99.90;;;;;;5047644;28;20059;-60
2022/07/21 02:57:37;;;;;;;12.73;10.73;;;19.60;99.90;;;;;;5046264;28;20122;-60
2022/07/21 03:00:04;;;;;;;13.70;9.82;;;19.60;99.90;;;;;;5046756;28;20198;-61
2022/07/21 03:02:30;;;;;;;15.48;11.40;;;19.60;99.90;;;;;;5046792;28;20045;-61
2022/07/21 03:04:55;;;;;;;14.88;11.15;;;19.50;99.90;;;;;;5045946;28;20052;-61
2022/07/21 03:07:21;;;;;;;16.05;11.63;;;19.50;99.90;;;;;;5047578;28;20561;-61
2022/07/21 03:09:46;;;;;;;14.00;11.68;;;19.50;99.90;;;;;;5046460;28;20136;-61
2022/07/21 03:12:12;;;;;;;13.80;11.55;;;19.50;99.90;;;;;;5045837;28;20091;-61
2022/07/21 03:14:38;;;;;;;15.32;11.90;;;19.50;99.90;;;;;;5046629;28;20033;-60
2022/07/21 03:17:03;;;;;;;17.17;12.55;;;19.60;99.90;;;;;;5045664;28;20095;-61
2022/07/21 03:19:29;;;;;;;13.13;10.98;;;19.50;99.90;;;;;;5046799;28;20041;-61
2022/07/21 03:21:54;;;;;;;18.35;11.95;;;19.60;99.90;;;;;;5046354;28;20041;-61
2022/07/21 03:24:20;;;;;;;26.67;11.85;;;19.60;99.90;;;;;;5045332;28;20052;-61
2022/07/21 03:26:46;;;;;;;15.55;11.55;;;19.60;99.90;;;;;;5046226;28;20049;-60
2022/07/21 03:29:11;;;;;;;14.00;12.48;;;19.60;99.90;;;;;;5046664;28;20045;-60
2022/07/21 03:31:37;;;;;;;13.90;12.02;;;19.60;99.90;;;;;;5046041;28;20049;-60
2022/07/21 03:34:03;;;;;;;15.20;11.95;;;19.60;99.90;;;;;;5046262;28;20403;-60
2022/07/21 03:36:28;;;;;;;18.27;13.35;;;19.60;99.90;;;;;;5046671;28;20040;-60
2022/07/21 03:38:54;;;;;;;17.65;13.25;;;19.60;99.90;;;;;;5045435;28;20518;-61
2022/07/21 03:41:20;;;;;;;16.85;14.20;;;19.60;99.90;;;;;;5046826;28;20128;-60
2022/07/21 03:43:45;;;;;;;17.05;13.35;;;19.60;99.90;;;;;;5046422;28;20523;-60
2022/07/21 03:46:11;;;;;;;17.75;13.40;;;19.50;99.90;;;;;;5045841;28;20056;-60
2022/07/21 03:48:36;;;;;;;14.77;12.48;;;19.50;99.90;;;;;;5046424;28;20365;-60
2022/07/21 03:51:02;;;;;;;15.20;12.65;;;19.50;99.90;;;;;;5046119;28;20131;-60
2022/07/21 03:53:28;;;;;;;15.75;13.32;;;19.50;99.90;;;;;;5045587;28;20272;-60
2022/07/21 03:55:54;;;;;;;17.88;14.38;;;19.50;99.90;;;;;;5046312;28;20037;-60
2022/07/21 03:58:19;;;;;;;15.88;13.15;;;19.60;99.90;;;;;;5045280;28;20071;-60
2022/07/21 04:00:45;;;;;;;14.23;12.18;;;19.60;99.90;;;;;;5045317;28;20411;-60
2022/07/21 04:03:11;;;;;;;15.52;12.90;;;19.60;99.90;;;;;;5046282;28;20091;-60
2022/07/21 04:05:39;;;;;;;18.40;12.93;;;19.60;99.90;;;;;;5046223;28;20045;-60
2022/07/21 04:08:06;;;;;;;18.80;12.98;;;19.70;99.90;;;;;;5045083;28;20546;-60
2022/07/21 04:10:34;;;;;;;16.67;13.95;;;19.60;99.90;;;;;;5045922;28;20059;-60
2022/07/21 04:13:01;;;;;;;13.98;12.60;;;19.60;99.90;;;;;;5045948;28;20041;-60
2022/07/21 04:15:28;;;;;;;20.10;12.02;;;19.60;99.90;;;;;;5045637;28;20171;-60
2022/07/21 04:17:53;;;;;;;15.73;13.05;;;19.70;99.90;;;;;;5046464;28;20049;-60
2022/07/21 04:20:20;;;;;;;16.35;14.02;;;19.60;99.90;;;;;;5045745;28;20411;-60
2022/07/21 04:22:47;;;;;;;17.70;14.30;;;19.60;99.90;;;;;;5045936;28;20095;-60
2022/07/21 04:25:14;;;;;;;15.70;13.43;;;19.60;99.90;;;;;;5045954;28;20067;-60
2022/07/21 04:27:40;;;;;;;16.27;13.73;;;19.50;99.90;;;;;;5045275;28;20040;-60
2022/07/21 04:30:08;;;;;;;13.95;12.55;;;19.50;99.90;;;;;;5044582;28;20059;-60
2022/07/21 04:32:34;;;;;;;18.02;15.05;;;19.50;99.90;;;;;;5045894;28;20041;-60
2022/07/21 04:35:00;;;;;;;16.58;13.85;;;19.50;99.90;;;;;;5044892;28;20118;-60
2022/07/21 04:37:26;;;;;;;16.58;13.88;;;19.60;99.90;;;;;;5046099;28;20049;-60
2022/07/21 04:39:52;;;;;;;32.50;14.10;;;19.40;99.90;;;;;;5045860;28;20083;-60
2022/07/21 04:42:17;;;;;;;16.75;14.95;;;19.50;99.90;;;;;;5045338;28;20048;-60
2022/07/21 04:44:43;;;;;;;19.98;15.00;;;19.50;99.90;;;;;;5045868;28;20494;-60
2022/07/21 04:47:08;;;;;;;16.65;14.93;;;19.50;99.90;;;;;;5045432;28;20049;-60
2022/07/21 04:49:34;;;;;;;18.75;15.00;;;19.50;99.90;;;;;;5045112;28;20037;-60
2022/07/21 04:52:00;;;;;;;19.33;16.10;;;19.50;99.90;;;;;;5045316;28;20457;-60
2022/07/21 04:54:25;;;;;;;16.45;14.73;;;19.40;99.90;;;;;;5045817;28;20048;-60
2022/07/21 04:56:51;;;;;;;17.58;15.75;;;19.50;99.90;;;;;;5045138;28;20136;-60
2022/07/21 04:59:17;;;;;;;20.08;15.63;;;19.50;99.90;;;;;;5047656;28;20511;-60
2022/07/21 05:01:42;;;;;;;16.80;15.23;;;19.50;99.90;;;;;;5049392;28;20044;-60
2022/07/21 05:04:08;;;;;;;20.85;17.35;;;19.50;99.90;;;;;;5048353;28;20048;-60
2022/07/21 05:06:34;;;;;;;20.05;17.88;;;19.50;99.90;;;;;;5049153;28;20124;-60
2022/07/21 05:09:00;;;;;;;20.10;18.00;;;19.50;99.90;;;;;;5048792;28;20138;-60
2022/07/21 05:11:26;;;;;;;20.48;17.52;;;19.50;99.90;;;;;;5048531;28;20179;-60
2022/07/21 05:13:51;;;;;;;22.60;17.42;;;19.60;99.90;;;;;;5049097;28;20124;-60
2022/07/21 05:16:17;;;;;;;20.73;18.52;;;19.60;99.90;;;;;;5049298;28;20048;-60
2022/07/21 05:18:43;;;;;;;22.58;18.80;;;19.60;99.90;;;;;;5048254;28;20048;-60
2022/07/21 05:21:09;;;;;;;21.58;18.55;;;19.60;99.90;;;;;;5048798;28;20045;-60
2022/07/21 05:23:34;;;;;;;20.15;17.75;;;19.60;99.90;;;;;;5048276;28;20515;-60
2022/07/21 05:26:00;;;;;;;19.80;17.60;;;19.70;99.90;;;;;;5048566;28;20072;-60
2022/07/21 05:28:29;;;;;;;18.52;16.70;;;19.80;99.90;;;;;;5048831;28;20081;-60
2022/07/21 05:30:55;;;;;;;19.27;17.40;;;19.70;99.90;;;;;;5047659;28;20500;-60
2022/07/21 05:33:21;;;;;;;17.83;15.77;;;19.70;99.90;;;;;;5049308;28;20061;-60
2022/07/21 05:35:46;;;;;;;17.40;15.70;;;19.70;99.90;;;;;;5048441;28;20041;-60
2022/07/21 05:38:12;;;;;;;18.67;16.77;;;19.70;99.90;;;;;;5047960;28;20041;-60
2022/07/21 05:40:38;;;;;;;18.52;16.67;;;19.70;99.90;;;;;;5048430;28;20048;-60
2022/07/21 05:43:03;;;;;;;17.48;15.88;;;19.60;99.90;;;;;;5048434;28;20045;-60
2022/07/21 05:45:29;;;;;;;16.92;15.13;;;19.70;99.90;;;;;;5047892;28;20059;-60
2022/07/21 05:47:55;;;;;;;17.90;16.00;;;19.60;99.90;;;;;;5048333;28;20543;-60
2022/07/21 05:50:20;;;;;;;16.55;14.77;;;19.60;99.90;;;;;;5049302;28;20063;-60
2022/07/21 05:52:46;;;;;;;17.98;16.25;;;19.50;99.90;;;;;;5047242;28;20441;-60
2022/07/21 05:55:12;;;;;;;16.55;14.85;;;19.50;99.90;;;;;;5048510;28;20045;-60
2022/07/21 05:57:38;;;;;;;16.95;15.35;;;19.50;99.90;;;;;;5047809;28;20060;-60
2022/07/21 06:00:04;;;;;;;15.68;14.18;;;19.50;99.90;;;;;;5047327;28;20087;-60
2022/07/21 06:02:31;;;;;;;16.45;14.90;;;19.60;99.90;;;;;;5048032;28;20515;-60
2022/07/21 06:04:57;;;;;;;17.13;15.43;;;19.60;99.90;;;;;;5047768;28;20044;-60
2022/07/21 06:07:23;;;;;;;19.17;14.95;;;19.60;99.90;;;;;;5047898;28;20044;-60
2022/07/21 06:09:49;;;;;;;16.67;14.90;;;19.60;99.90;;;;;;5046844;28;20037;-60
2022/07/21 06:12:15;;;;;;;15.95;14.35;;;19.60;99.90;;;;;;5047675;28;20080;-60
2022/07/21 06:14:40;;;;;;;17.13;15.00;;;19.50;99.90;;;;;;5047495;28;20116;-60
2022/07/21 06:17:06;;;;;;;18.48;14.80;;;19.60;99.90;;;;;;5047697;28;20511;-60
2022/07/21 06:19:32;;;;;;;16.88;15.20;;;19.60;99.90;;;;;;5048173;28;20041;-60
2022/07/21 06:21:58;;;;;;;17.63;15.82;;;19.60;99.90;;;;;;5046350;28;20447;-60
2022/07/21 06:24:26;;;;;;;16.88;15.27;;;19.50;99.90;;;;;;5048483;28;20084;-60
2022/07/21 06:26:52;;;;;;;21.00;16.30;;;19.50;99.90;;;;;;5047269;28;20049;-60
2022/07/21 06:29:18;;;;;;;16.35;14.80;;;19.50;99.90;;;;;;5047638;28;20400;-60
2022/07/21 06:31:44;;;;;;;17.58;15.77;;;19.50;99.90;;;;;;5047469;28;20323;-60
2022/07/21 06:34:09;;;;;;;20.52;17.65;;;19.50;99.90;;;;;;5046393;28;20541;-60
2022/07/21 06:36:35;;;;;;;21.15;16.98;;;19.50;99.90;;;;;;5047752;28;20039;-60
2022/07/21 06:39:01;;;;;;;22.02;17.50;;;19.50;99.90;;;;;;5047495;28;20049;-60
2022/07/21 06:41:27;;;;;;;18.63;16.63;;;19.50;99.90;;;;;;5046717;28;20048;-60
2022/07/21 06:43:52;;;;;;;20.33;17.02;;;19.50;99.90;;;;;;5047293;28;20045;-60
2022/07/21 06:46:18;;;;;;;20.77;18.05;;;19.50;99.90;;;;;;5047440;28;20550;-60
2022/07/21 06:48:43;;;;;;;20.60;17.88;;;19.50;99.90;;;;;;5046786;28;20052;-60
2022/07/21 06:51:09;;;;;;;19.70;17.38;;;19.60;99.90;;;;;;5046805;28;20435;-60
2022/07/21 06:53:35;;;;;;;21.10;18.90;;;19.50;99.90;;;;;;5047643;28;20084;-60
2022/07/21 06:56:00;;;;;;;22.70;19.40;;;19.50;99.90;;;;;;5046214;28;20045;-60
2022/07/21 06:58:27;;;;;;;19.42;17.45;;;19.40;99.90;;;;;;5047400;28;20385;-60
2022/07/21 07:00:53;;;;;;;21.55;19.23;;;19.40;99.90;;;;;;5047196;28;20056;-60
2022/07/21 07:03:19;;;;;;;20.67;18.45;;;19.50;99.90;;;;;;5046394;28;20128;-60
2022/07/21 07:05:46;;;;;;;20.90;18.42;;;19.50;99.90;;;;;;5046800;28;20045;-60
2022/07/21 07:08:13;;;;;;;19.33;17.25;;;19.40;99.90;;;;;;5047137;28;20052;-60
2022/07/21 07:10:40;;;;;;;21.27;18.10;;;19.50;99.90;;;;;;5046123;28;20044;-60
2022/07/21 07:13:05;;;;;;;20.35;18.10;;;19.60;99.90;;;;;;5046821;28;20049;-60
2022/07/21 07:15:31;;;;;;;20.52;17.80;;;19.50;99.90;;;;;;5046913;28;20063;-60
2022/07/21 07:17:57;;;;;;;24.60;20.00;;;19.50;99.90;;;;;;5045497;28;20772;-60
2022/07/21 07:20:22;;;;;;;23.60;19.63;;;19.60;99.90;;;;;;5047322;28;20396;-60
2022/07/21 07:22:48;;;;;;;21.23;19.13;;;19.60;99.90;;;;;;5045982;28;20067;-60
2022/07/21 07:25:17;;;;;;;24.75;21.00;;;19.60;99.90;;;;;;5045956;28;20053;-60
2022/07/21 07:27:44;;;;;;;20.45;18.48;;;19.70;99.90;;;;;;5046376;28;20079;-60
2022/07/21 07:30:10;;;;;;;22.00;19.70;;;19.80;99.90;;;;;;5045592;28;20106;-60
2022/07/21 07:32:36;;;;;;;23.58;21.08;;;19.80;99.90;;;;;;5046410;28;20052;-60
2022/07/21 07:35:01;;;;;;;25.65;21.77;;;19.80;99.90;;;;;;5045961;28;20049;-60
2022/07/21 07:37:27;;;;;;;24.13;21.50;;;19.90;99.90;;;;;;5046051;28;20048;-60
2022/07/21 07:39:52;;;;;;;23.73;21.33;;;19.90;99.90;;;;;;5046441;28;20083;-60
2022/07/21 07:42:18;;;;;;;22.73;20.42;;;20.00;99.90;;;;;;5046355;28;20057;-60
2022/07/21 07:44:45;;;;;;;23.90;21.45;;;20.00;99.90;;;;;;5045675;28;20076;-60
2022/07/21 07:47:10;;;;;;;23.95;20.83;;;20.00;99.90;;;;;;5046215;28;20040;-60
2022/07/21 07:49:36;;;;;;;22.58;20.25;;;20.10;99.90;;;;;;5046739;28;20045;-60
2022/07/21 07:52:02;;;;;;;22.63;20.30;;;20.10;99.90;;;;;;5045680;28;20438;-60
2022/07/21 07:54:28;;;;;;;20.65;18.65;;;20.20;99.90;;;;;;5046608;28;20045;-60
2022/07/21 07:56:53;;;;;;;21.75;19.45;;;20.30;99.90;;;;;;5046294;28;20052;-60
2022/07/21 07:59:19;;;;;;;21.50;19.20;;;20.20;99.90;;;;;;5045527;28;20040;-60
2022/07/21 08:01:45;;;;;;;19.65;17.55;;;20.20;99.90;;;;;;5046057;28;20463;-60
2022/07/21 08:04:11;;;;;;;22.65;20.45;;;20.20;99.90;;;;;;5046710;28;20045;-60
2022/07/21 08:06:36;;;;;;;20.83;18.80;;;20.20;99.90;;;;;;5045559;28;20128;-60
2022/07/21 08:09:03;;;;;;;21.67;19.60;;;20.20;99.90;;;;;;5045785;28;20077;-60
2022/07/21 08:11:28;;;;;;;22.65;20.27;;;20.20;99.90;;;;;;5046216;28;20411;-60
2022/07/21 08:13:54;;;;;;;22.67;20.35;;;20.20;99.90;;;;;;5045521;28;20481;-60
2022/07/21 08:16:20;;;;;;;20.92;18.92;;;20.30;99.90;;;;;;5046654;28;20045;-60
2022/07/21 08:18:46;;;;;;;26.58;20.60;;;20.30;99.90;;;;;;5045638;28;20515;-60
2022/07/21 08:21:11;;;;;;;23.67;21.38;;;20.30;99.90;;;;;;5045322;28;20055;-60
2022/07/21 08:23:37;;;;;;;22.90;20.50;;;20.30;99.90;;;;;;5045895;28;20075;-60
2022/07/21 08:26:04;;;;;;;23.77;21.38;;;20.30;99.90;;;;;;5045784;28;20049;-60
2022/07/21 08:28:30;;;;;;;23.35;20.85;;;20.30;99.90;;;;;;5045380;28;20128;-60
2022/07/21 08:30:56;;;;;;;23.63;21.23;;;20.30;99.90;;;;;;5045662;28;20141;-60
2022/07/21 08:33:21;;;;;;;22.48;20.35;;;20.40;99.90;;;;;;5046567;28;20060;-60
2022/07/21 08:35:47;;;;;;;24.48;21.88;;;20.40;99.90;;;;;;5049490;28;20582;-60
2022/07/21 08:38:13;;;;;;;25.88;23.35;;;20.40;99.90;;;;;;5049771;28;20053;-60
2022/07/21 08:40:42;;;;;;;24.83;22.13;;;20.40;99.90;;;;;;5048775;28;20051;-60
2022/07/21 08:43:09;;;;;;;23.70;21.38;;;20.40;99.90;;;;;;5049461;28;20092;-60
2022/07/21 08:45:36;;;;;;;25.50;22.67;;;20.40;99.90;;;;;;5049698;28;20041;-60
2022/07/21 08:48:02;;;;;;;24.48;22.17;;;20.40;99.90;;;;;;5048946;28;20055;-60
2022/07/21 08:50:30;;;;;;;24.15;21.65;;;20.40;99.90;;;;;;5049511;28;20045;-60
2022/07/21 08:52:55;;;;;;;24.92;22.33;;;20.50;99.90;;;;;;5049310;28;20076;-60
2022/07/21 08:55:22;;;;;;;23.90;21.40;;;20.50;99.90;;;;;;5049249;28;20092;-60
2022/07/21 08:57:48;;;;;;;24.85;22.25;;;20.50;99.90;;;;;;5048859;28;20446;-60
2022/07/21 09:00:13;;;;;;;29.50;24.10;;;20.50;99.90;;;;;;5049409;28;20129;-60
2022/07/21 09:02:39;;;;;;;23.23;20.73;;;20.60;99.90;;;;;;5048761;28;20106;-60
2022/07/21 09:05:08;;;;;;;32.03;24.63;;;20.60;99.90;;;;;;5049034;28;20041;-60
2022/07/21 09:07:55;;;;;;;32.88;27.42;;;20.60;99.90;;;;;;5049288;28;20045;-60
2022/07/21 09:10:26;;;;;;;29.95;26.77;;;20.70;99.90;;;;;;5047646;28;20053;-60
2022/07/21 09:12:57;;;;;;;31.23;27.27;;;20.70;99.90;;;;;;5049212;28;20492;-60
2022/07/21 09:15:25;;;;;;;28.60;25.50;;;20.70;99.90;;;;;;5049599;28;20041;-60
2022/07/21 09:18:10;;;;;;;31.10;27.77;;;20.70;99.90;;;;;;5048287;28;20545;-60
2022/07/21 09:20:36;;;;;;;36.03;28.67;;;20.70;99.90;;;;;;5048845;28;20041;-60
2022/07/21 09:23:14;;;;;;;31.45;28.05;;;20.60;99.90;;;;;;5047745;28;20087;-60
2022/07/21 09:25:58;;;;;;;32.17;28.83;;;20.60;99.90;;;;;;5049160;28;20076;-60
2022/07/21 09:28:27;;;;;;;31.20;28.08;;;20.60;99.90;;;;;;5049518;28;20091;-60
2022/07/21 09:31:06;;;;;;;34.17;29.33;;;20.60;99.90;;;;;;5048133;28;20049;-60
2022/07/21 09:33:32;;;;;;;30.95;27.67;;;20.50;99.90;;;;;;5048393;28;20516;-60
2022/07/21 09:36:03;;;;;;;33.45;28.23;;;20.50;99.90;;;;;;5048344;28;20056;-60
2022/07/21 09:38:31;;;;;;;33.65;29.02;;;20.40;99.90;;;;;;5048268;28;20338;-60
2022/07/21 09:41:11;;;;;;;32.40;28.90;;;20.30;99.90;;;;;;5048299;28;20045;-60
2022/07/21 09:43:43;;;;;;;32.67;29.20;;;20.30;99.90;;;;;;5048705;28;20492;-60
2022/07/21 09:46:21;;;;;;;35.60;31.38;;;20.30;99.90;;;;;;5048084;28;20048;-60
2022/07/21 09:48:50;;;;;;;37.20;32.40;;;20.40;99.90;;;;;;5048214;28;20043;-60
2022/07/21 09:51:33;;;;;;;33.45;29.90;;;20.40;99.90;;;;;;5047779;28;20051;-60
2022/07/21 09:54:03;;;;;;;34.00;30.48;;;20.40;99.90;;;;;;5047716;28;20404;-60
2022/07/21 09:56:32;;;;;;;32.53;29.02;;;20.40;99.90;;;;;;5048058;28;20049;-60
2022/07/21 09:58:59;;;;;;;33.97;30.10;;;20.50;99.90;;;;;;5047506;28;20060;-60
2022/07/21 10:01:25;;;;;;;36.83;32.95;;;20.40;99.90;;;;;;5048875;28;20102;-60
2022/07/21 10:03:53;;;;;;;37.28;33.17;;;20.40;99.90;;;;;;5047040;28;20088;-60
2022/07/21 10:06:23;;;;;;;37.28;33.30;;;20.30;99.90;;;;;;5047476;28;20153;-60
2022/07/21 10:08:49;;;;;;;34.83;31.15;;;20.30;99.90;;;;;;5047640;28;20056;-60
2022/07/21 10:11:15;;;;;;;36.75;32.85;;;20.30;99.90;;;;;;5048327;28;20060;-60
2022/07/21 10:13:41;;;;;;;35.63;30.98;;;20.20;99.90;;;;;;5047315;28;20427;-60
2022/07/21 10:16:12;;;;;;;36.65;32.80;;;20.30;99.90;;;;;;5047826;28;20448;-60
2022/07/21 10:18:53;;;;;;;36.60;32.50;;;20.20;99.90;;;;;;5048246;28;20388;-60
2022/07/21 10:21:43;;;;;;;35.95;31.35;;;20.20;99.90;;;;;;5047855;28;20049;-60
2022/07/21 10:24:13;;;;;;;38.25;33.85;;;20.20;99.90;;;;;;5047483;28;20522;-60
2022/07/21 10:27:09;;;;;;;38.45;32.95;;;20.20;99.90;;;;;;5047154;28;20056;-60
2022/07/21 10:29:55;;;;;;;36.60;31.83;;;20.10;99.90;;;;;;5047613;28;20060;-60
2022/07/21 10:32:24;;;;;;;35.30;31.70;;;20.00;99.90;;;;;;5048062;28;20084;-60
2022/07/21 10:34:50;;;;;;;38.22;33.25;;;20.10;99.90;;;;;;5047231;28;20732;-60
2022/07/21 10:37:43;;;;;;;35.28;31.60;;;20.10;99.90;;;;;;5047491;28;20055;-60
2022/07/21 10:40:18;;;;;;;36.28;32.40;;;20.10;99.90;;;;;;5046612;28;20455;-60
2022/07/21 10:42:44;;;;;;;33.92;30.17;;;20.10;99.90;;;;;;5047661;28;20041;-60
2022/07/21 10:45:32;;;;;;;36.30;32.42;;;20.10;99.90;;;;;;5047384;28;20385;-60
2022/07/21 10:47:59;;;;;;;36.83;33.10;;;20.10;99.90;;;;;;5046094;28;20085;-60
2022/07/21 10:50:33;;;;;;;39.58;32.08;;;20.20;99.90;;;;;;5047515;28;20087;-60
2022/07/21 10:53:01;;;;;;;37.75;33.72;;;20.10;99.90;;;;;;5047177;28;20123;-60
2022/07/21 10:55:30;;;;;;;34.25;30.58;;;20.10;99.90;;;;;;5046497;28;20389;-60
2022/07/21 10:58:13;;;;;;;36.63;32.03;;;20.10;99.90;;;;;;5046355;28;20049;-60
2022/07/21 11:00:43;;;;;;;34.38;30.67;;;20.10;99.90;;;;;;5046916;28;20145;-60
2022/07/21 11:03:28;;;;;;;37.67;33.60;;;20.10;99.90;;;;;;5045885;28;20344;-60
2022/07/21 11:06:06;;;;;;;31.83;28.38;;;20.20;99.90;;;;;;5047319;28;20048;-60
2022/07/21 11:08:46;;;;;;;33.15;29.50;;;20.20;99.90;;;;;;5046244;28;20080;-60
2022/07/21 11:11:16;;;;;;;33.63;29.73;;;20.20;99.90;;;;;;5046917;28;20094;-60
2022/07/21 11:14:14;;;;;;;30.77;27.52;;;20.30;99.90;;;;;;5046687;28;20161;-60
2022/07/21 11:16:40;;;;;;;31.40;26.98;;;20.30;99.90;;;;;;5046438;28;20059;-60
2022/07/21 11:19:06;;;;;;;29.58;25.52;;;20.30;99.90;;;;;;5046631;28;20040;-60
2022/07/21 11:21:32;;;;;;;29.17;25.95;;;20.40;99.90;;;;;;5046788;28;20103;-60
2022/07/21 11:23:57;;;;;;;28.08;25.17;;;20.60;99.90;;;;;;5046113;28;20444;-60
2022/07/21 11:26:25;;;;;;;30.55;26.40;;;20.80;99.90;;;;;;5047306;28;20052;-60
2022/07/21 11:29:06;;;;;;;29.02;26.05;;;21.00;99.90;;;;;;5047057;28;20133;-60
2022/07/21 11:31:45;;;;;;;28.52;25.52;;;21.10;99.90;;;;;;5045910;28;20444;-60
2022/07/21 11:34:11;;;;;;;28.48;25.50;;;21.20;99.90;;;;;;5046837;28;20198;-60
2022/07/21 11:36:37;;;;;;;26.13;23.45;;;21.30;99.90;;;;;;5045942;28;20045;-60
2022/07/21 11:39:09;;;;;;;25.23;22.80;;;21.40;99.90;;;;;;5046364;28;20416;-60
2022/07/21 11:41:35;;;;;;;;;;;21.40;99.90;;;;;;5046921;28;20045;-60
2022/07/21 11:44:01;;;;;;;22.77;20.55;;;21.40;99.90;;;;;;5045583;28;20008;-60
2022/07/21 11:46:27;;;;;;;24.38;21.77;;;21.30;99.90;;;;;;5046380;28;20053;-60
2022/07/21 11:49:06;;;;;;;22.73;20.42;;;21.40;99.90;;;;;;5046439;28;20093;-60
2022/07/21 11:51:32;;;;;;;20.25;18.42;;;21.40;99.90;;;;;;5045931;28;20098;-60
2022/07/21 11:53:58;;;;;;;20.42;18.25;;;21.30;99.90;;;;;;5046143;28;20131;-60
2022/07/21 11:56:23;;;;;;;19.70;17.70;;;21.30;99.90;;;;;;5046657;28;20136;-60
2022/07/21 11:58:49;;;;;;;18.10;16.25;;;21.40;99.90;;;;;;5045568;28;20500;-60
2022/07/21 12:01:15;;;;;;;16.30;14.80;;;21.40;99.90;;;;;;5046181;28;20550;-60
2022/07/21 12:03:50;;;;;;;16.98;15.35;;;21.40;99.90;;;;;;5046583;28;20495;-60
2022/07/21 12:06:17;;;;;;;15.88;14.38;;;21.40;99.90;;;;;;5045745;28;20060;-60
2022/07/21 12:08:43;;;;;;;15.13;13.73;;;21.40;99.90;;;;;;5047416;28;20040;-60
2022/07/21 12:11:12;;;;;;;14.88;13.45;;;21.40;99.90;;;;;;5050344;28;20458;-60
2022/07/21 12:13:57;;;;;;;15.88;14.30;;;21.30;99.90;;;;;;5049729;28;20593;-60
2022/07/21 12:16:23;;;;;;;15.07;13.57;;;21.20;99.90;;;;;;5050857;28;20076;-60
2022/07/21 12:18:49;;;;;;;14.93;13.52;;;21.10;99.90;;;;;;5047972;28;20106;-60
2022/07/21 12:21:15;;;;;;;16.52;14.90;;;21.10;99.90;;;;;;5050216;28;20057;-60
2022/07/21 12:23:41;;;;;;;13.63;12.48;;;21.10;99.90;;;;;;5050327;28;20033;-60
2022/07/21 12:26:21;;;;;;;10.15;8.95;;;21.10;99.90;;;;;;5049201;28;20071;-60
2022/07/21 12:28:49;;;;;;;8.55;7.68;;;21.10;99.90;;;;;;5049765;28;20110;-60
2022/07/21 12:31:20;;;;;;;8.15;6.78;;;21.10;99.90;;;;;;5050184;28;20048;-60
2022/07/21 12:33:47;;;;;;;10.38;6.45;;;21.00;99.90;;;;;;5049034;28;20045;-60
2022/07/21 12:36:13;;;;;;;5.47;4.97;;;20.90;99.90;;;;;;5050278;28;20048;-60